createdAt,value
2018-03-11T00:00:06.422Z,86.30
2018-03-11T00:01:11.084Z,86.70
2018-03-11T00:02:06.480Z,86.70
2018-03-11T00:03:06.360Z,86.90
2018-03-11T00:04:05.975Z,87.50
2018-03-11T00:05:10.874Z,87.80
2018-03-11T00:06:06.389Z,87.80
2018-03-11T00:07:06.524Z,88.00
2018-03-11T00:08:06.381Z,88.30
2018-03-11T00:09:10.731Z,88.20
2018-03-11T00:10:08.883Z,88.10
2018-03-11T00:11:05.944Z,88.00
2018-03-11T00:12:09.520Z,88.30
2018-03-11T00:13:06.129Z,88.20
2018-03-11T00:14:06.067Z,88.30
2018-03-11T00:15:10.615Z,88.20
2018-03-11T00:16:06.312Z,88.10
2018-03-11T00:17:10.222Z,88.00
2018-03-11T00:18:06.102Z,88.00
2018-03-11T00:19:05.901Z,88.10
2018-03-11T00:20:05.523Z,88.10
2018-03-11T00:21:05.623Z,88.00
2018-03-11T00:22:05.582Z,88.20
2018-03-11T00:23:10.716Z,88.60
2018-03-11T00:24:06.540Z,88.70
2018-03-11T00:25:06.321Z,88.70
2018-03-11T00:26:09.676Z,88.40
2018-03-11T00:27:06.218Z,88.40
2018-03-11T00:28:11.287Z,88.50
2018-03-11T00:29:06.903Z,88.50
2018-03-11T00:30:10.959Z,88.40
2018-03-11T00:31:05.725Z,88.40
2018-03-11T00:32:06.460Z,88.30
2018-03-11T00:33:06.472Z,88.30
2018-03-11T00:34:11.420Z,88.70
2018-03-11T00:35:09.963Z,88.50
2018-03-11T00:36:05.487Z,88.60
2018-03-11T00:37:06.353Z,88.40
2018-03-11T00:38:06.365Z,88.30
2018-03-11T00:39:06.552Z,88.30
2018-03-11T00:40:10.689Z,88.10
2018-03-11T00:41:06.319Z,88.30
2018-03-11T00:42:11.437Z,88.10
2018-03-11T00:43:05.787Z,88.10
2018-03-11T00:44:05.597Z,88.10
2018-03-11T00:45:16.514Z,88.00
2018-03-11T00:46:08.592Z,88.10
2018-03-11T00:47:06.016Z,88.10
2018-03-11T00:48:09.585Z,88.20
2018-03-11T00:49:06.182Z,88.20
2018-03-11T00:50:08.290Z,88.10
2018-03-11T00:51:09.177Z,88.20
2018-03-11T00:52:10.675Z,88.30
2018-03-11T00:53:06.049Z,88.30
2018-03-11T00:54:06.128Z,88.20
2018-03-11T00:55:08.583Z,88.30
2018-03-11T00:56:11.087Z,88.30
2018-03-11T00:57:09.306Z,88.30
2018-03-11T00:58:06.945Z,88.40
2018-03-11T00:59:06.615Z,88.40
2018-03-11T01:00:06.273Z,88.40
2018-03-11T01:01:08.406Z,88.60
2018-03-11T01:02:08.332Z,88.70
2018-03-11T01:03:05.934Z,88.70
2018-03-11T01:04:05.858Z,88.60
2018-03-11T01:05:05.906Z,88.80
2018-03-11T01:06:05.927Z,88.80
2018-03-11T01:07:05.945Z,88.80
2018-03-11T01:08:11.638Z,88.80
2018-03-11T01:09:06.196Z,88.70
2018-03-11T01:10:06.245Z,88.90
2018-03-11T01:11:06.248Z,89.00
2018-03-11T01:12:08.310Z,88.80
2018-03-11T01:13:10.849Z,88.80
2018-03-11T01:14:11.192Z,88.70
2018-03-11T01:15:10.695Z,88.60
2018-03-11T01:16:06.105Z,88.60
2018-03-11T01:17:05.866Z,88.60
2018-03-11T01:18:06.054Z,88.90
2018-03-11T01:19:10.884Z,88.90
2018-03-11T01:20:06.236Z,88.90
2018-03-11T01:21:06.231Z,88.80
2018-03-11T01:22:13.258Z,89.00
2018-03-11T01:23:05.785Z,88.90
2018-03-11T01:24:09.395Z,89.20
2018-03-11T01:25:08.378Z,89.00
2018-03-11T01:26:06.145Z,89.00
2018-03-11T01:27:05.812Z,88.90
2018-03-11T01:28:10.554Z,88.70
2018-03-11T01:29:09.841Z,88.60
2018-03-11T01:30:05.765Z,88.60
2018-03-11T01:31:11.468Z,88.50
2018-03-11T01:32:10.999Z,88.60
2018-03-11T01:33:05.672Z,88.60
2018-03-11T01:34:10.633Z,88.60
2018-03-11T01:35:05.572Z,88.50
2018-03-11T01:36:06.511Z,88.50
2018-03-11T01:37:06.149Z,88.40
2018-03-11T01:38:06.542Z,88.40
2018-03-11T01:39:06.203Z,88.40
2018-03-11T01:40:06.074Z,88.40
2018-03-11T01:41:10.993Z,88.30
2018-03-11T01:42:09.028Z,88.30
2018-03-11T01:43:08.787Z,88.30
2018-03-11T01:44:06.521Z,88.30
2018-03-11T01:45:10.001Z,88.30
2018-03-11T01:46:08.898Z,88.40
2018-03-11T01:47:06.414Z,88.40
2018-03-11T01:48:08.894Z,88.40
2018-03-11T01:49:06.543Z,88.40
2018-03-11T01:50:11.058Z,88.60
2018-03-11T01:51:06.450Z,88.60
2018-03-11T01:52:11.310Z,88.50
2018-03-11T01:53:10.732Z,88.40
2018-03-11T01:54:08.693Z,88.40
2018-03-11T01:55:10.739Z,88.40
2018-03-11T01:56:06.142Z,88.40
2018-03-11T01:57:05.945Z,88.60
2018-03-11T01:58:05.710Z,88.60
2018-03-11T01:59:06.442Z,88.50
2018-03-11T02:00:08.885Z,88.60
2018-03-11T02:01:06.579Z,88.60
2018-03-11T02:02:07.382Z,88.60
2018-03-11T02:03:10.898Z,88.60
2018-03-11T02:04:08.872Z,88.70
2018-03-11T02:05:06.524Z,88.70
2018-03-11T02:06:09.916Z,88.80
2018-03-11T02:07:17.100Z,88.80
2018-03-11T02:08:08.927Z,88.70
2018-03-11T02:09:06.701Z,88.60
2018-03-11T02:10:06.423Z,88.70
2018-03-11T02:11:11.076Z,88.50
2018-03-11T02:12:10.917Z,88.60
2018-03-11T02:13:09.477Z,88.60
2018-03-11T02:14:07.067Z,88.60
2018-03-11T02:15:05.577Z,88.70
2018-03-11T02:16:06.421Z,88.70
2018-03-11T02:17:06.060Z,88.80
2018-03-11T02:18:05.760Z,88.90
2018-03-11T02:19:10.717Z,88.90
2018-03-11T02:20:05.859Z,88.90
2018-03-11T02:21:05.976Z,89.00
2018-03-11T02:22:05.969Z,88.80
2018-03-11T02:23:05.843Z,89.00
2018-03-11T02:24:05.606Z,89.00
2018-03-11T02:25:14.068Z,89.00
2018-03-11T02:26:08.928Z,88.90
2018-03-11T02:27:06.108Z,88.90
2018-03-11T02:28:05.980Z,88.90
2018-03-11T02:29:05.648Z,88.90
2018-03-11T02:30:08.274Z,88.90
2018-03-11T02:31:05.693Z,88.90
2018-03-11T02:32:09.258Z,88.80
2018-03-11T02:33:09.217Z,88.80
2018-03-11T02:34:05.788Z,88.80
2018-03-11T02:35:10.756Z,88.60
2018-03-11T02:36:14.014Z,88.60
2018-03-11T02:37:05.656Z,88.60
2018-03-11T02:38:05.733Z,88.70
2018-03-11T02:39:05.852Z,88.70
2018-03-11T02:40:05.880Z,88.60
2018-03-11T02:41:05.774Z,88.60
2018-03-11T02:42:06.307Z,88.60
2018-03-11T02:43:06.529Z,88.50
2018-03-11T02:44:06.564Z,88.50
2018-03-11T02:45:11.437Z,88.50
2018-03-11T02:46:08.211Z,88.40
2018-03-11T02:47:09.079Z,88.40
2018-03-11T02:48:05.701Z,88.40
2018-03-11T02:49:11.374Z,88.30
2018-03-11T02:50:08.304Z,88.30
2018-03-11T02:51:08.723Z,88.20
2018-03-11T02:52:06.195Z,88.20
2018-03-11T02:53:06.228Z,88.20
2018-03-11T02:54:06.028Z,88.20
2018-03-11T02:55:05.882Z,88.20
2018-03-11T02:56:09.384Z,88.30
2018-03-11T02:57:08.351Z,88.30
2018-03-11T02:58:05.869Z,88.40
2018-03-11T02:59:05.787Z,88.40
2018-03-11T03:00:10.592Z,88.30
2018-03-11T03:01:06.253Z,88.50
2018-03-11T03:02:05.450Z,88.50
2018-03-11T03:03:06.606Z,88.40
2018-03-11T03:04:05.511Z,88.40
2018-03-11T03:05:10.530Z,88.60
2018-03-11T03:06:05.974Z,88.60
2018-03-11T03:07:18.684Z,88.60
2018-03-11T03:08:06.175Z,88.60
2018-03-11T03:09:08.671Z,88.60
2018-03-11T03:10:08.765Z,88.60
2018-03-11T03:11:11.304Z,88.60
2018-03-11T03:12:10.713Z,88.60
2018-03-11T03:13:16.318Z,88.70
2018-03-11T03:14:05.952Z,88.70
2018-03-11T03:15:06.048Z,88.70
2018-03-11T03:16:11.006Z,88.60
2018-03-11T03:17:10.610Z,88.60
2018-03-11T03:18:06.482Z,88.60
2018-03-11T03:19:06.258Z,88.60
2018-03-11T03:20:08.163Z,88.60
2018-03-11T03:21:05.874Z,88.60
2018-03-11T03:22:05.564Z,88.60
2018-03-11T03:23:05.477Z,88.70
2018-03-11T03:24:07.225Z,88.60
2018-03-11T03:25:06.030Z,88.70
2018-03-11T03:26:09.764Z,88.70
2018-03-11T03:27:10.776Z,88.70
2018-03-11T03:28:11.397Z,89.00
2018-03-11T03:29:06.209Z,89.00
2018-03-11T03:30:08.492Z,89.30
2018-03-11T03:31:06.109Z,89.30
2018-03-11T03:32:06.204Z,90.00
2018-03-11T03:33:05.626Z,90.00
2018-03-11T03:34:08.965Z,90.40
2018-03-11T03:35:06.393Z,90.30
2018-03-11T03:36:11.482Z,90.70
2018-03-11T03:37:05.927Z,90.80
2018-03-11T03:38:15.880Z,90.80
2018-03-11T03:39:06.116Z,90.80
2018-03-11T03:40:13.542Z,90.70
2018-03-11T03:41:06.240Z,90.70
2018-03-11T03:42:08.715Z,90.60
2018-03-11T03:43:08.892Z,90.50
2018-03-11T03:44:05.736Z,90.50
2018-03-11T03:45:08.955Z,90.50
2018-03-11T03:46:09.004Z,90.60
2018-03-11T03:47:06.451Z,90.50
2018-03-11T03:48:10.044Z,90.60
2018-03-11T03:49:05.621Z,90.50
2018-03-11T03:50:13.079Z,90.40
2018-03-11T03:51:05.901Z,90.50
2018-03-11T03:52:05.638Z,90.50
2018-03-11T03:53:06.225Z,90.40
2018-03-11T03:54:09.419Z,90.50
2018-03-11T03:55:09.017Z,90.30
2018-03-11T03:56:09.094Z,90.50
2018-03-11T03:57:08.397Z,90.60
2018-03-11T03:58:08.713Z,90.60
2018-03-11T03:59:09.422Z,90.50
2018-03-11T04:00:06.028Z,90.40
2018-03-11T04:01:08.413Z,90.50
2018-03-11T04:02:06.133Z,90.50
2018-03-11T04:03:09.020Z,90.50
2018-03-11T04:04:05.864Z,90.50
2018-03-11T04:05:10.879Z,90.30
2018-03-11T04:06:07.635Z,90.30
2018-03-11T04:07:10.657Z,90.50
2018-03-11T04:08:11.142Z,90.40
2018-03-11T04:09:05.500Z,90.50
2018-03-11T04:10:08.482Z,90.40
2018-03-11T04:11:08.957Z,90.30
2018-03-11T04:12:05.605Z,90.30
2018-03-11T04:13:06.341Z,90.20
2018-03-11T04:14:05.889Z,90.20
2018-03-11T04:15:06.181Z,90.30
2018-03-11T04:16:06.494Z,90.20
2018-03-11T04:17:05.770Z,90.20
2018-03-11T04:18:11.036Z,90.20
2018-03-11T04:19:06.483Z,90.20
2018-03-11T04:20:06.275Z,90.20
2018-03-11T04:21:05.960Z,90.20
2018-03-11T04:22:09.152Z,90.20
2018-03-11T04:23:05.670Z,90.20
2018-03-11T04:24:11.161Z,90.10
2018-03-11T04:25:05.864Z,90.10
2018-03-11T04:26:05.577Z,90.10
2018-03-11T04:27:09.673Z,90.10
2018-03-11T04:28:06.487Z,90.10
2018-03-11T04:29:06.384Z,90.00
2018-03-11T04:30:08.163Z,90.00
2018-03-11T04:31:09.341Z,90.00
2018-03-11T04:32:13.809Z,89.90
2018-03-11T04:33:06.764Z,89.90
2018-03-11T04:34:06.585Z,89.90
2018-03-11T04:35:05.956Z,89.80
2018-03-11T04:36:10.921Z,89.70
2018-03-11T04:37:06.252Z,89.70
2018-03-11T04:38:10.944Z,89.70
2018-03-11T04:39:05.739Z,89.70
2018-03-11T04:40:06.410Z,89.70
2018-03-11T04:41:08.582Z,89.60
2018-03-11T04:42:09.164Z,89.60
2018-03-11T04:43:05.677Z,89.50
2018-03-11T04:44:05.899Z,89.50
2018-03-11T04:45:11.488Z,89.40
2018-03-11T04:46:09.207Z,89.40
2018-03-11T04:47:10.802Z,89.50
2018-03-11T04:48:06.483Z,89.50
2018-03-11T04:49:06.342Z,89.50
2018-03-11T04:50:08.928Z,89.60
2018-03-11T04:51:09.780Z,89.70
2018-03-11T04:52:06.457Z,89.70
2018-03-11T04:53:06.298Z,89.70
2018-03-11T04:54:08.506Z,89.80
2018-03-11T04:55:08.881Z,89.80
2018-03-11T04:56:13.944Z,89.80
2018-03-11T04:57:05.748Z,89.80
2018-03-11T04:58:05.952Z,89.80
2018-03-11T04:59:05.961Z,89.80
2018-03-11T05:00:05.689Z,89.70
2018-03-11T05:01:06.930Z,89.60
2018-03-11T05:02:05.470Z,89.50
2018-03-11T05:03:05.641Z,89.30
2018-03-11T05:04:08.126Z,89.10
2018-03-11T05:05:08.154Z,89.10
2018-03-11T05:06:10.758Z,89.20
2018-03-11T05:07:11.174Z,89.10
2018-03-11T05:08:05.993Z,89.10
2018-03-11T05:09:05.787Z,89.10
2018-03-11T05:10:06.511Z,88.90
2018-03-11T05:11:09.126Z,88.90
2018-03-11T05:12:10.762Z,88.80
2018-03-11T05:13:09.662Z,88.80
2018-03-11T05:14:13.139Z,88.80
2018-03-11T05:15:10.822Z,88.70
2018-03-11T05:16:06.467Z,88.70
2018-03-11T05:17:06.010Z,88.70
2018-03-11T05:18:06.337Z,89.00
2018-03-11T05:19:05.975Z,89.10
2018-03-11T05:20:05.895Z,89.20
2018-03-11T05:21:05.796Z,89.20
2018-03-11T05:22:10.748Z,89.50
2018-03-11T05:23:12.592Z,89.50
2018-03-11T05:24:06.053Z,89.40
2018-03-11T05:25:06.142Z,89.40
2018-03-11T05:26:10.849Z,89.40
2018-03-11T05:27:08.911Z,89.20
2018-03-11T05:28:06.383Z,89.20
2018-03-11T05:29:06.205Z,89.10
2018-03-11T05:30:11.402Z,89.20
2018-03-11T05:31:08.408Z,89.20
2018-03-11T05:32:17.722Z,89.10
2018-03-11T05:33:06.298Z,89.10
2018-03-11T05:34:16.298Z,89.10
2018-03-11T05:35:05.904Z,89.10
2018-03-11T05:36:11.337Z,89.00
2018-03-11T05:37:05.894Z,89.10
2018-03-11T05:38:13.558Z,89.00
2018-03-11T05:39:11.934Z,88.90
2018-03-11T05:40:08.976Z,88.80
2018-03-11T05:41:06.469Z,88.80
2018-03-11T05:42:16.416Z,88.80
2018-03-11T05:43:06.259Z,88.80
2018-03-11T05:44:08.698Z,88.80
2018-03-11T05:45:06.376Z,88.80
2018-03-11T05:46:08.702Z,88.80
2018-03-11T05:47:06.391Z,88.80
2018-03-11T05:48:09.447Z,89.00
2018-03-11T05:49:05.990Z,88.80
2018-03-11T05:50:10.698Z,88.90
2018-03-11T05:51:06.536Z,88.90
2018-03-11T05:52:08.721Z,89.00
2018-03-11T05:53:08.782Z,89.00
2018-03-11T05:54:11.195Z,89.10
2018-03-11T05:55:11.379Z,89.00
2018-03-11T05:56:05.953Z,89.20
2018-03-11T05:57:06.730Z,89.10
2018-03-11T05:58:05.906Z,89.20
2018-03-11T05:59:05.804Z,89.10
2018-03-11T06:00:11.211Z,89.20
2018-03-11T06:01:10.794Z,89.30
2018-03-11T06:02:11.367Z,89.20
2018-03-11T06:03:11.056Z,89.20
2018-03-11T06:04:06.362Z,89.20
2018-03-11T06:05:10.822Z,89.20
2018-03-11T06:06:09.692Z,89.50
2018-03-11T06:07:09.010Z,89.40
2018-03-11T06:08:06.073Z,89.50
2018-03-11T06:09:13.170Z,89.60
2018-03-11T06:10:05.654Z,89.60
2018-03-11T06:11:05.768Z,89.50
2018-03-11T06:12:10.590Z,89.60
2018-03-11T06:13:06.144Z,89.60
2018-03-11T06:14:08.390Z,89.20
2018-03-11T06:15:09.263Z,89.10
2018-03-11T06:16:10.817Z,89.00
2018-03-11T06:17:07.068Z,89.00
2018-03-11T06:18:06.468Z,89.00
2018-03-11T06:19:06.157Z,88.90
2018-03-11T06:20:06.201Z,89.00
2018-03-11T06:21:10.905Z,88.90
2018-03-11T06:22:06.539Z,89.10
2018-03-11T06:23:05.658Z,89.20
2018-03-11T06:24:06.020Z,89.30
2018-03-11T06:25:05.656Z,89.40
2018-03-11T06:26:09.100Z,89.70
2018-03-11T06:27:05.500Z,89.60
2018-03-11T06:28:11.168Z,89.70
2018-03-11T06:29:07.005Z,89.70
2018-03-11T06:30:05.611Z,89.40
2018-03-11T06:31:05.795Z,89.50
2018-03-11T06:32:07.388Z,89.50
2018-03-11T06:33:08.470Z,89.40
2018-03-11T06:34:08.503Z,89.40
2018-03-11T06:35:06.264Z,89.30
2018-03-11T06:36:06.169Z,82.80
2018-03-11T06:37:10.526Z,88.80
2018-03-11T06:38:05.897Z,88.80
2018-03-11T06:39:06.107Z,88.70
2018-03-11T06:40:06.105Z,88.40
2018-03-11T06:41:06.910Z,88.40
2018-03-11T06:42:07.477Z,88.20
2018-03-11T06:43:06.233Z,88.10
2018-03-11T06:44:06.041Z,87.10
2018-03-11T06:45:11.186Z,86.30
2018-03-11T06:46:05.653Z,86.20
2018-03-11T06:47:08.982Z,86.10
2018-03-11T06:48:06.402Z,86.00
2018-03-11T06:49:10.759Z,86.20
2018-03-11T06:50:11.287Z,86.50
2018-03-11T06:51:05.952Z,86.50
2018-03-11T06:52:10.441Z,86.30
2018-03-11T06:53:06.838Z,86.30
2018-03-11T06:54:05.973Z,86.10
2018-03-11T06:55:06.365Z,86.00
2018-03-11T06:56:09.328Z,85.60
2018-03-11T06:57:05.957Z,85.60
2018-03-11T06:58:05.973Z,85.60
2018-03-11T06:59:08.297Z,85.70
2018-03-11T07:00:09.433Z,85.50
2018-03-11T07:01:06.305Z,85.50
2018-03-11T07:02:11.326Z,85.50
2018-03-11T07:03:05.711Z,85.50
2018-03-11T07:04:06.805Z,85.30
2018-03-11T07:05:09.350Z,84.90
2018-03-11T07:06:11.967Z,84.60
2018-03-11T07:07:09.051Z,84.40
2018-03-11T07:08:05.499Z,84.40
2018-03-11T07:09:15.194Z,84.10
2018-03-11T07:10:06.022Z,84.00
2018-03-11T07:11:08.583Z,83.50
2018-03-11T07:12:06.199Z,83.60
2018-03-11T07:13:07.061Z,83.00
2018-03-11T07:14:11.504Z,82.60
2018-03-11T07:15:11.326Z,82.70
2018-03-11T07:16:06.229Z,82.40
2018-03-11T07:17:08.193Z,82.30
2018-03-11T07:18:05.876Z,82.30
2018-03-11T07:19:09.615Z,81.50
2018-03-11T07:20:06.452Z,81.40
2018-03-11T07:21:11.166Z,80.40
2018-03-11T07:22:06.009Z,80.10
2018-03-11T07:23:13.365Z,79.80
2018-03-11T07:24:08.610Z,79.40
2018-03-11T07:25:09.042Z,79.40
2018-03-11T07:26:06.688Z,79.40
2018-03-11T07:27:06.835Z,78.60
2018-03-11T07:28:10.520Z,77.40
2018-03-11T07:29:08.595Z,77.20
2018-03-11T07:30:08.234Z,77.00
2018-03-11T07:31:05.900Z,77.10
2018-03-11T07:32:13.330Z,76.00
2018-03-11T07:33:10.795Z,74.60
2018-03-11T07:34:08.825Z,74.50
2018-03-11T07:35:10.620Z,75.30
2018-03-11T07:36:06.154Z,75.40
2018-03-11T07:37:09.418Z,75.60
2018-03-11T07:38:11.687Z,75.60
2018-03-11T07:39:06.517Z,75.50
2018-03-11T07:40:06.624Z,75.00
2018-03-11T07:41:06.420Z,75.00
2018-03-11T07:42:09.365Z,74.90
2018-03-11T07:43:08.073Z,74.80
2018-03-11T07:44:13.406Z,75.00
2018-03-11T07:45:06.461Z,75.00
2018-03-11T07:46:06.090Z,75.40
2018-03-11T07:47:07.179Z,74.60
2018-03-11T07:48:08.327Z,74.60
2018-03-11T07:49:08.641Z,73.80
2018-03-11T07:50:05.685Z,73.80
2018-03-11T07:51:06.498Z,73.60
2018-03-11T07:52:06.111Z,73.90
2018-03-11T07:53:06.011Z,73.50
2018-03-11T07:54:06.159Z,73.40
2018-03-11T07:55:07.817Z,73.50
2018-03-11T07:56:09.106Z,73.80
2018-03-11T07:57:05.649Z,73.80
2018-03-11T07:58:08.645Z,74.30
2018-03-11T07:59:13.924Z,74.20
2018-03-11T08:00:06.204Z,74.00
2018-03-11T08:01:10.898Z,73.20
2018-03-11T08:02:11.675Z,73.20
2018-03-11T08:03:11.735Z,73.40
2018-03-11T08:04:06.516Z,73.50
2018-03-11T08:05:08.798Z,72.80
2018-03-11T08:06:11.442Z,72.30
2018-03-11T08:07:06.010Z,72.30
2018-03-11T08:08:09.059Z,72.10
2018-03-11T08:09:06.529Z,72.10
2018-03-11T08:10:10.604Z,72.30
2018-03-11T08:11:06.269Z,72.60
2018-03-11T08:12:05.974Z,72.50
2018-03-11T08:13:06.340Z,72.40
2018-03-11T08:14:06.588Z,71.90
2018-03-11T08:15:06.489Z,71.80
2018-03-11T08:16:07.466Z,71.90
2018-03-11T08:17:08.459Z,72.20
2018-03-11T08:18:05.913Z,72.20
2018-03-11T08:19:10.688Z,72.00
2018-03-11T08:20:06.123Z,72.00
2018-03-11T08:21:06.254Z,71.80
2018-03-11T08:22:06.107Z,72.10
2018-03-11T08:23:08.201Z,72.70
2018-03-11T08:24:10.051Z,72.60
2018-03-11T08:25:08.650Z,72.40
2018-03-11T08:26:07.320Z,72.40
2018-03-11T08:27:06.283Z,72.30
2018-03-11T08:28:06.301Z,72.00
2018-03-11T08:29:11.037Z,72.10
2018-03-11T08:30:05.636Z,72.10
2018-03-11T08:31:08.605Z,71.60
2018-03-11T08:32:11.168Z,71.80
2018-03-11T08:33:06.392Z,71.70
2018-03-11T08:34:09.232Z,72.00
2018-03-11T08:35:05.815Z,72.00
2018-03-11T08:36:06.332Z,72.20
2018-03-11T08:37:05.788Z,72.10
2018-03-11T08:38:05.936Z,72.20
2018-03-11T08:39:05.972Z,72.50
2018-03-11T08:40:08.393Z,72.70
2018-03-11T08:41:06.406Z,72.70
2018-03-11T08:42:09.312Z,72.60
2018-03-11T08:43:05.876Z,72.60
2018-03-11T08:44:05.695Z,72.40
2018-03-11T08:45:05.896Z,72.60
2018-03-11T08:46:09.411Z,72.70
2018-03-11T08:47:06.164Z,72.80
2018-03-11T08:48:06.061Z,72.60
2018-03-11T08:49:05.800Z,72.70
2018-03-11T08:50:10.704Z,72.70
2018-03-11T08:51:08.119Z,72.60
2018-03-11T08:52:10.547Z,72.70
2018-03-11T08:53:11.735Z,72.50
2018-03-11T08:54:13.253Z,72.60
2018-03-11T08:55:10.310Z,72.90
2018-03-11T08:56:07.642Z,72.90
2018-03-11T08:57:06.459Z,73.00
2018-03-11T08:58:09.400Z,73.20
2018-03-11T08:59:06.207Z,73.30
2018-03-11T09:00:06.064Z,73.20
2018-03-11T09:01:05.907Z,73.20
2018-03-11T09:02:09.024Z,73.20
2018-03-11T09:03:05.638Z,73.20
2018-03-11T09:04:11.047Z,73.20
2018-03-11T09:05:06.577Z,73.20
2018-03-11T09:06:11.113Z,73.20
2018-03-11T09:07:06.202Z,73.10
2018-03-11T09:08:11.028Z,73.30
2018-03-11T09:09:11.095Z,73.00
2018-03-11T09:10:11.665Z,72.90
2018-03-11T09:11:09.577Z,72.50
2018-03-11T09:12:06.205Z,72.50
2018-03-11T09:13:06.284Z,72.10
2018-03-11T09:14:06.501Z,72.00
2018-03-11T09:15:06.177Z,72.10
2018-03-11T09:16:06.710Z,72.10
2018-03-11T09:17:05.835Z,72.30
2018-03-11T09:18:06.187Z,72.00
2018-03-11T09:19:09.689Z,71.60
2018-03-11T09:20:06.181Z,71.60
2018-03-11T09:21:05.944Z,71.60
2018-03-11T09:22:09.475Z,72.20
2018-03-11T09:23:06.100Z,72.20
2018-03-11T09:24:06.039Z,72.00
2018-03-11T09:25:06.621Z,71.60
2018-03-11T09:26:06.317Z,71.00
2018-03-11T09:27:06.511Z,71.50
2018-03-11T09:28:13.858Z,71.30
2018-03-11T09:29:11.487Z,71.10
2018-03-11T09:30:06.166Z,70.50
2018-03-11T09:31:10.842Z,71.00
2018-03-11T09:32:08.329Z,71.30
2018-03-11T09:33:09.164Z,71.20
2018-03-11T09:34:05.934Z,71.30
2018-03-11T09:35:07.974Z,71.10
2018-03-11T09:36:07.331Z,71.10
2018-03-11T09:37:05.961Z,71.00
2018-03-11T09:38:05.925Z,70.60
2018-03-11T09:39:06.476Z,70.50
2018-03-11T09:40:11.184Z,70.60
2018-03-11T09:41:06.093Z,70.70
2018-03-11T09:42:08.580Z,71.00
2018-03-11T09:43:05.776Z,71.00
2018-03-11T09:44:08.973Z,71.30
2018-03-11T09:45:09.880Z,71.60
2018-03-11T09:46:06.659Z,71.60
2018-03-11T09:47:06.473Z,71.80
2018-03-11T09:48:06.804Z,71.10
2018-03-11T09:49:10.870Z,71.20
2018-03-11T09:50:08.616Z,70.80
2018-03-11T09:51:06.054Z,70.80
2018-03-11T09:52:05.954Z,71.20
2018-03-11T09:53:11.090Z,71.50
2018-03-11T09:54:05.532Z,71.70
2018-03-11T09:55:09.263Z,71.00
2018-03-11T09:56:09.067Z,70.90
2018-03-11T09:57:05.817Z,70.90
2018-03-11T09:58:08.910Z,69.50
2018-03-11T09:59:06.457Z,69.40
2018-03-11T10:00:06.301Z,69.50
2018-03-11T10:01:08.523Z,69.40
2018-03-11T10:02:16.060Z,69.20
2018-03-11T10:03:10.517Z,69.30
2018-03-11T10:04:06.363Z,69.30
2018-03-11T10:05:11.474Z,66.80
2018-03-11T10:06:05.760Z,66.80
2018-03-11T10:07:11.180Z,67.20
2018-03-11T10:08:06.004Z,67.70
2018-03-11T10:09:09.730Z,67.90
2018-03-11T10:10:06.288Z,67.80
2018-03-11T10:11:08.773Z,68.10
2018-03-11T10:12:06.583Z,68.10
2018-03-11T10:13:06.344Z,68.00
2018-03-11T10:14:11.223Z,67.60
2018-03-11T10:15:06.173Z,67.60
2018-03-11T10:16:06.041Z,67.90
2018-03-11T10:17:06.484Z,68.00
2018-03-11T10:18:05.997Z,67.30
2018-03-11T10:19:06.750Z,65.60
2018-03-11T10:20:06.162Z,65.50
2018-03-11T10:21:11.051Z,66.00
2018-03-11T10:22:09.906Z,65.50
2018-03-11T10:23:10.160Z,65.50
2018-03-11T10:24:10.754Z,65.50
2018-03-11T10:25:06.218Z,65.50
2018-03-11T10:26:06.341Z,65.50
2018-03-11T10:27:06.103Z,65.50
2018-03-11T10:28:08.998Z,65.30
2018-03-11T10:29:10.723Z,63.90
2018-03-11T10:30:08.774Z,62.10
2018-03-11T10:31:06.327Z,62.10
2018-03-11T10:32:10.996Z,62.40
2018-03-11T10:33:06.138Z,62.70
2018-03-11T10:34:08.313Z,62.50
2018-03-11T10:35:06.142Z,62.40
2018-03-11T10:36:08.605Z,61.40
2018-03-11T10:37:07.154Z,61.40
2018-03-11T10:38:10.842Z,60.20
2018-03-11T10:39:06.374Z,60.30
2018-03-11T10:40:11.344Z,59.90
2018-03-11T10:41:06.057Z,59.90
2018-03-11T10:42:10.493Z,58.80
2018-03-11T10:43:05.885Z,58.90
2018-03-11T10:44:10.793Z,60.10
2018-03-11T10:45:06.396Z,60.00
2018-03-11T10:46:06.199Z,59.80
2018-03-11T10:47:08.943Z,60.00
2018-03-11T10:48:06.449Z,59.90
2018-03-11T10:49:11.352Z,59.50
2018-03-11T10:50:08.342Z,59.20
2018-03-11T10:51:05.945Z,59.20
2018-03-11T10:52:09.447Z,57.20
2018-03-11T10:53:12.159Z,57.50
2018-03-11T10:54:05.595Z,57.60
2018-03-11T10:55:11.205Z,58.30
2018-03-11T10:56:13.377Z,57.70
2018-03-11T10:57:09.062Z,57.70
2018-03-11T10:58:08.062Z,57.40
2018-03-11T10:59:06.191Z,57.40
2018-03-11T11:00:11.067Z,57.20
2018-03-11T11:01:05.570Z,57.20
2018-03-11T11:02:08.583Z,55.60
2018-03-11T11:03:05.728Z,55.70
2018-03-11T11:04:10.786Z,55.10
2018-03-11T11:05:05.494Z,54.10
2018-03-11T11:06:08.668Z,53.80
2018-03-11T11:07:06.335Z,53.80
2018-03-11T11:08:09.261Z,53.40
2018-03-11T11:09:06.404Z,53.40
2018-03-11T11:10:06.367Z,52.00
2018-03-11T11:11:06.063Z,50.70
2018-03-11T11:12:05.847Z,51.50
2018-03-11T11:13:09.580Z,51.40
2018-03-11T11:14:06.442Z,51.40
2018-03-11T11:15:06.440Z,50.90
2018-03-11T11:16:06.651Z,51.30
2018-03-11T11:17:11.187Z,49.80
2018-03-11T11:18:05.646Z,49.70
2018-03-11T11:19:08.861Z,49.00
2018-03-11T11:20:08.702Z,48.40
2018-03-11T11:21:06.212Z,48.30
2018-03-11T11:22:06.058Z,48.50
2018-03-11T11:23:08.913Z,49.20
2018-03-11T11:24:06.672Z,49.20
2018-03-11T11:25:06.231Z,49.20
2018-03-11T11:26:05.484Z,49.00
2018-03-11T11:27:13.745Z,48.50
2018-03-11T11:28:07.396Z,48.50
2018-03-11T11:29:08.542Z,48.50
2018-03-11T11:30:05.938Z,48.50
2018-03-11T11:31:06.506Z,47.60
2018-03-11T11:32:06.171Z,47.30
2018-03-11T11:33:05.996Z,47.70
2018-03-11T11:34:10.101Z,46.70
2018-03-11T11:35:10.171Z,46.10
2018-03-11T11:36:05.729Z,45.90
2018-03-11T11:37:10.834Z,46.10
2018-03-11T11:38:11.528Z,46.00
2018-03-11T11:39:06.102Z,46.00
2018-03-11T11:40:15.732Z,46.90
2018-03-11T11:41:09.764Z,47.50
2018-03-11T11:42:11.588Z,47.10
2018-03-11T11:43:06.229Z,47.30
2018-03-11T11:44:08.857Z,47.40
2018-03-11T11:45:06.565Z,47.40
2018-03-11T11:46:11.224Z,47.00
2018-03-11T11:47:11.371Z,46.60
2018-03-11T11:48:11.173Z,46.60
2018-03-11T11:49:05.777Z,46.50
2018-03-11T11:50:08.249Z,46.80
2018-03-11T11:51:10.696Z,46.60
2018-03-11T11:52:06.259Z,46.60
2018-03-11T11:53:06.254Z,46.60
2018-03-11T11:54:05.607Z,46.40
2018-03-11T11:55:09.817Z,44.80
2018-03-11T11:56:11.265Z,45.00
2018-03-11T11:57:06.003Z,44.80
2018-03-11T11:58:05.730Z,45.30
2018-03-11T11:59:06.462Z,45.20
2018-03-11T12:00:11.335Z,43.80
2018-03-11T12:01:09.077Z,43.80
2018-03-11T12:02:05.740Z,43.80
2018-03-11T12:03:05.931Z,43.90
2018-03-11T12:04:11.433Z,43.50
2018-03-11T12:05:06.177Z,43.40
2018-03-11T12:06:05.520Z,43.70
2018-03-11T12:07:06.472Z,43.30
2018-03-11T12:08:11.035Z,43.40
2018-03-11T12:09:06.249Z,43.40
2018-03-11T12:10:06.227Z,43.70
2018-03-11T12:11:11.078Z,43.60
2018-03-11T12:12:08.332Z,43.90
2018-03-11T12:13:05.944Z,43.90
2018-03-11T12:14:05.988Z,43.80
2018-03-11T12:15:09.274Z,43.70
2018-03-11T12:16:06.333Z,43.80
2018-03-11T12:17:09.715Z,43.20
2018-03-11T12:18:06.276Z,43.20
2018-03-11T12:19:09.671Z,42.40
2018-03-11T12:20:06.230Z,42.40
2018-03-11T12:21:08.410Z,42.40
2018-03-11T12:22:09.418Z,42.70
2018-03-11T12:23:05.864Z,42.80
2018-03-11T12:24:06.281Z,42.30
2018-03-11T12:25:05.604Z,41.20
2018-03-11T12:26:06.421Z,41.90
2018-03-11T12:27:06.298Z,41.60
2018-03-11T12:28:05.620Z,41.00
2018-03-11T12:29:10.996Z,40.70
2018-03-11T12:30:06.248Z,40.70
2018-03-11T12:31:11.009Z,40.50
2018-03-11T12:32:05.976Z,41.10
2018-03-11T12:33:11.490Z,41.10
2018-03-11T12:34:05.522Z,41.20
2018-03-11T12:35:09.597Z,41.00
2018-03-11T12:36:05.867Z,41.00
2018-03-11T12:37:06.456Z,40.40
2018-03-11T12:38:06.148Z,40.60
2018-03-11T12:39:11.398Z,39.30
2018-03-11T12:40:06.073Z,39.30
2018-03-11T12:41:05.925Z,39.80
2018-03-11T12:42:06.958Z,39.70
2018-03-11T12:43:08.048Z,39.90
2018-03-11T12:44:05.572Z,39.90
2018-03-11T12:45:06.116Z,39.80
2018-03-11T12:46:08.597Z,40.30
2018-03-11T12:47:08.682Z,39.80
2018-03-11T12:48:11.180Z,39.30
2018-03-11T12:49:06.372Z,39.30
2018-03-11T12:50:06.581Z,39.30
2018-03-11T12:51:09.403Z,39.30
2018-03-11T12:52:05.929Z,39.40